sensor_id;sensor_type;location;lat;lon;timestamp;P1;durP1;ratioP1;P2;durP2;ratioP2
48975;SDS011;34791;52.752;8.346;2023-02-10T00:00:56;89.90;;;31.47;;
48975;SDS011;34791;52.752;8.346;2023-02-10T00:03:26;77.13;;;29.40;;
48975;SDS011;34791;52.752;8.346;2023-02-10T00:05:51;89.13;;;31.73;;
48975;SDS011;34791;52.752;8.346;2023-02-10T00:08:16;78.07;;;30.73;;
48975;SDS011;34791;52.752;8.346;2023-02-10T00:10:42;115.07;;;33.60;;
48975;SDS011;34791;52.752;8.346;2023-02-10T00:13:07;95.47;;;34.40;;
48975;SDS011;34791;52.752;8.346;2023-02-10T00:15:32;97.67;;;34.57;;
48975;SDS011;34791;52.752;8.346;2023-02-10T00:17:58;102.47;;;34.30;;
48975;SDS011;34791;52.752;8.346;2023-02-10T00:20:23;107.23;;;34.33;;
48975;SDS011;34791;52.752;8.346;2023-02-10T00:22:49;114.70;;;37.83;;
48975;SDS011;34791;52.752;8.346;2023-02-10T00:25:14;120.83;;;36.13;;
48975;SDS011;34791;52.752;8.346;2023-02-10T00:27:39;117.77;;;38.60;;
48975;SDS011;34791;52.752;8.346;2023-02-10T00:30:05;125.63;;;38.63;;
48975;SDS011;34791;52.752;8.346;2023-02-10T00:32:30;134.07;;;40.50;;
48975;SDS011;34791;52.752;8.346;2023-02-10T00:34:56;123.10;;;39.40;;
48975;SDS011;34791;52.752;8.346;2023-02-10T00:37:21;129.20;;;40.87;;
48975;SDS011;34791;52.752;8.346;2023-02-10T00:39:46;134.20;;;40.97;;
48975;SDS011;34791;52.752;8.346;2023-02-10T00:42:12;152.80;;;41.43;;
48975;SDS011;34791;52.752;8.346;2023-02-10T00:44:37;145.30;;;43.53;;
48975;SDS011;34791;52.752;8.346;2023-02-10T00:47:03;157.20;;;42.37;;
48975;SDS011;34791;52.752;8.346;2023-02-10T00:49:28;153.57;;;42.23;;
48975;SDS011;34791;52.752;8.346;2023-02-10T00:51:53;142.20;;;40.30;;
48975;SDS011;34791;52.752;8.346;2023-02-10T00:54:19;152.93;;;44.17;;
48975;SDS011;34791;52.752;8.346;2023-02-10T00:56:44;153.60;;;44.53;;
48975;SDS011;34791;52.752;8.346;2023-02-10T00:59:11;165.47;;;44.67;;
48975;SDS011;34791;52.752;8.346;2023-02-10T01:01:37;169.37;;;43.67;;
48975;SDS011;34791;52.752;8.346;2023-02-10T01:04:03;166.73;;;44.20;;
48975;SDS011;34791;52.752;8.346;2023-02-10T01:06:29;167.33;;;46.27;;
48975;SDS011;34791;52.752;8.346;2023-02-10T01:08:55;154.47;;;45.10;;
48975;SDS011;34791;52.752;8.346;2023-02-10T01:11:20;168.60;;;45.53;;
48975;SDS011;34791;52.752;8.346;2023-02-10T01:13:45;172.47;;;46.87;;
48975;SDS011;34791;52.752;8.346;2023-02-10T01:16:13;160.87;;;47.53;;
48975;SDS011;34791;52.752;8.346;2023-02-10T01:18:41;175.30;;;45.53;;
48975;SDS011;34791;52.752;8.346;2023-02-10T01:21:08;196.43;;;47.47;;
48975;SDS011;34791;52.752;8.346;2023-02-10T01:23:38;194.70;;;48.13;;
48975;SDS011;34791;52.752;8.346;2023-02-10T01:26:04;193.97;;;49.90;;
48975;SDS011;34791;52.752;8.346;2023-02-10T01:28:29;189.50;;;50.63;;
48975;SDS011;34791;52.752;8.346;2023-02-10T01:30:55;195.53;;;48.97;;
48975;SDS011;34791;52.752;8.346;2023-02-10T01:33:20;211.03;;;48.57;;
48975;SDS011;34791;52.752;8.346;2023-02-10T01:35:46;190.80;;;45.73;;
48975;SDS011;34791;52.752;8.346;2023-02-10T01:38:11;210.97;;;50.23;;
48975;SDS011;34791;52.752;8.346;2023-02-10T01:40:36;232.87;;;52.87;;
48975;SDS011;34791;52.752;8.346;2023-02-10T01:43:02;214.63;;;51.63;;
48975;SDS011;34791;52.752;8.346;2023-02-10T01:45:34;215.77;;;50.53;;
48975;SDS011;34791;52.752;8.346;2023-02-10T01:48:02;231.27;;;54.37;;
48975;SDS011;34791;52.752;8.346;2023-02-10T01:50:30;225.50;;;52.40;;
48975;SDS011;34791;52.752;8.346;2023-02-10T01:53:02;223.80;;;55.23;;
48975;SDS011;34791;52.752;8.346;2023-02-10T01:55:31;251.33;;;55.27;;
48975;SDS011;34791;52.752;8.346;2023-02-10T01:57:59;224.03;;;52.33;;
48975;SDS011;34791;52.752;8.346;2023-02-10T02:00:27;210.07;;;50.13;;
48975;SDS011;34791;52.752;8.346;2023-02-10T02:02:53;243.40;;;54.63;;
48975;SDS011;34791;52.752;8.346;2023-02-10T02:05:32;207.07;;;52.47;;
48975;SDS011;34791;52.752;8.346;2023-02-10T02:08:21;238.53;;;50.30;;
48975;SDS011;34791;52.752;8.346;2023-02-10T02:13:20;249.30;;;55.77;;
48975;SDS011;34791;52.752;8.346;2023-02-10T02:16:02;252.60;;;53.63;;
48975;SDS011;34791;52.752;8.346;2023-02-10T02:18:46;248.50;;;55.10;;
48975;SDS011;34791;52.752;8.346;2023-02-10T02:21:27;252.07;;;55.23;;
48975;SDS011;34791;52.752;8.346;2023-02-10T02:32:22;268.00;;;53.63;;
48975;SDS011;34791;52.752;8.346;2023-02-10T02:34:52;249.53;;;54.40;;
48975;SDS011;34791;52.752;8.346;2023-02-10T02:37:26;238.20;;;54.87;;
48975;SDS011;34791;52.752;8.346;2023-02-10T02:39:54;261.33;;;56.00;;
48975;SDS011;34791;52.752;8.346;2023-02-10T02:42:30;243.17;;;53.60;;
48975;SDS011;34791;52.752;8.346;2023-02-10T02:45:08;239.13;;;55.97;;
48975;SDS011;34791;52.752;8.346;2023-02-10T03:01:22;191.27;;;49.30;;
48975;SDS011;34791;52.752;8.346;2023-02-10T03:03:54;201.27;;;50.43;;
48975;SDS011;34791;52.752;8.346;2023-02-10T03:06:22;195.17;;;51.67;;
48975;SDS011;34791;52.752;8.346;2023-02-10T03:08:48;210.10;;;50.23;;
48975;SDS011;34791;52.752;8.346;2023-02-10T03:11:14;214.20;;;53.63;;
48975;SDS011;34791;52.752;8.346;2023-02-10T03:13:39;203.70;;;50.80;;
48975;SDS011;34791;52.752;8.346;2023-02-10T03:16:05;189.57;;;52.07;;
48975;SDS011;34791;52.752;8.346;2023-02-10T03:18:31;199.30;;;50.60;;
48975;SDS011;34791;52.752;8.346;2023-02-10T03:20:56;200.83;;;52.57;;
48975;SDS011;34791;52.752;8.346;2023-02-10T03:23:21;204.50;;;53.63;;
48975;SDS011;34791;52.752;8.346;2023-02-10T03:25:47;179.07;;;46.00;;
48975;SDS011;34791;52.752;8.346;2023-02-10T03:28:13;178.70;;;47.43;;
48975;SDS011;34791;52.752;8.346;2023-02-10T03:30:38;196.53;;;52.67;;
48975;SDS011;34791;52.752;8.346;2023-02-10T03:33:11;189.33;;;50.73;;
48975;SDS011;34791;52.752;8.346;2023-02-10T03:35:37;176.87;;;48.83;;
48975;SDS011;34791;52.752;8.346;2023-02-10T03:38:03;201.53;;;49.47;;
48975;SDS011;34791;52.752;8.346;2023-02-10T03:40:28;179.90;;;51.50;;
48975;SDS011;34791;52.752;8.346;2023-02-10T03:42:54;192.17;;;50.87;;
48975;SDS011;34791;52.752;8.346;2023-02-10T03:45:19;177.27;;;47.17;;
48975;SDS011;34791;52.752;8.346;2023-02-10T03:47:44;187.73;;;51.47;;
48975;SDS011;34791;52.752;8.346;2023-02-10T03:50:10;200.57;;;54.30;;
48975;SDS011;34791;52.752;8.346;2023-02-10T03:52:35;198.50;;;53.33;;
48975;SDS011;34791;52.752;8.346;2023-02-10T03:55:00;208.03;;;51.33;;
48975;SDS011;34791;52.752;8.346;2023-02-10T03:57:26;193.17;;;51.10;;
48975;SDS011;34791;52.752;8.346;2023-02-10T03:59:51;212.43;;;55.47;;
48975;SDS011;34791;52.752;8.346;2023-02-10T04:02:16;185.97;;;52.07;;
48975;SDS011;34791;52.752;8.346;2023-02-10T04:04:42;209.10;;;54.80;;
48975;SDS011;34791;52.752;8.346;2023-02-10T04:07:08;205.00;;;55.83;;
48975;SDS011;34791;52.752;8.346;2023-02-10T04:09:33;202.83;;;55.63;;
48975;SDS011;34791;52.752;8.346;2023-02-10T04:11:59;209.13;;;53.23;;
48975;SDS011;34791;52.752;8.346;2023-02-10T04:14:24;195.40;;;51.23;;
48975;SDS011;34791;52.752;8.346;2023-02-10T04:16:49;200.53;;;55.20;;
48975;SDS011;34791;52.752;8.346;2023-02-10T04:19:15;195.63;;;53.50;;
48975;SDS011;34791;52.752;8.346;2023-02-10T04:21:40;188.13;;;53.73;;
48975;SDS011;34791;52.752;8.346;2023-02-10T04:24:05;194.43;;;50.83;;
48975;SDS011;34791;52.752;8.346;2023-02-10T04:26:31;191.50;;;50.33;;
48975;SDS011;34791;52.752;8.346;2023-02-10T04:28:56;203.77;;;53.13;;
48975;SDS011;34791;52.752;8.346;2023-02-10T04:31:22;195.80;;;51.60;;
48975;SDS011;34791;52.752;8.346;2023-02-10T04:33:47;212.57;;;55.57;;
48975;SDS011;34791;52.752;8.346;2023-02-10T04:36:12;199.77;;;53.87;;
48975;SDS011;34791;52.752;8.346;2023-02-10T04:38:38;195.83;;;53.23;;
48975;SDS011;34791;52.752;8.346;2023-02-10T04:41:03;233.10;;;56.63;;
48975;SDS011;34791;52.752;8.346;2023-02-10T04:43:30;203.30;;;50.77;;
48975;SDS011;34791;52.752;8.346;2023-02-10T04:45:56;198.40;;;50.87;;
48975;SDS011;34791;52.752;8.346;2023-02-10T04:48:21;196.80;;;51.27;;
48975;SDS011;34791;52.752;8.346;2023-02-10T04:50:47;210.07;;;53.87;;
48975;SDS011;34791;52.752;8.346;2023-02-10T04:53:12;194.53;;;49.30;;
48975;SDS011;34791;52.752;8.346;2023-02-10T04:55:38;204.43;;;51.73;;
48975;SDS011;34791;52.752;8.346;2023-02-10T04:58:03;202.07;;;53.90;;
48975;SDS011;34791;52.752;8.346;2023-02-10T05:00:29;209.77;;;53.57;;
48975;SDS011;34791;52.752;8.346;2023-02-10T05:02:54;226.80;;;54.93;;
48975;SDS011;34791;52.752;8.346;2023-02-10T05:05:19;206.73;;;52.67;;
48975;SDS011;34791;52.752;8.346;2023-02-10T05:07:45;211.53;;;53.90;;
48975;SDS011;34791;52.752;8.346;2023-02-10T05:10:10;207.87;;;54.57;;
48975;SDS011;34791;52.752;8.346;2023-02-10T05:12:36;220.27;;;54.87;;
48975;SDS011;34791;52.752;8.346;2023-02-10T05:15:02;205.80;;;52.87;;
48975;SDS011;34791;52.752;8.346;2023-02-10T05:17:28;192.47;;;51.23;;
48975;SDS011;34791;52.752;8.346;2023-02-10T05:19:53;212.20;;;54.83;;
48975;SDS011;34791;52.752;8.346;2023-02-10T05:22:19;202.60;;;53.13;;
48975;SDS011;34791;52.752;8.346;2023-02-10T05:24:47;202.13;;;55.33;;
48975;SDS011;34791;52.752;8.346;2023-02-10T05:27:12;185.43;;;47.73;;
48975;SDS011;34791;52.752;8.346;2023-02-10T05:29:37;202.07;;;53.93;;
48975;SDS011;34791;52.752;8.346;2023-02-10T05:32:03;187.33;;;51.27;;
48975;SDS011;34791;52.752;8.346;2023-02-10T05:34:28;208.67;;;54.53;;
48975;SDS011;34791;52.752;8.346;2023-02-10T05:36:53;218.77;;;54.30;;
48975;SDS011;34791;52.752;8.346;2023-02-10T05:39:19;207.17;;;55.30;;
48975;SDS011;34791;52.752;8.346;2023-02-10T05:41:51;202.05;;;49.42;;
48975;SDS011;34791;52.752;8.346;2023-02-10T05:44:17;192.43;;;48.00;;
48975;SDS011;34791;52.752;8.346;2023-02-10T05:46:43;193.50;;;53.47;;
48975;SDS011;34791;52.752;8.346;2023-02-10T05:49:08;212.20;;;55.50;;
48975;SDS011;34791;52.752;8.346;2023-02-10T05:51:34;196.60;;;53.10;;
48975;SDS011;34791;52.752;8.346;2023-02-10T05:53:59;184.47;;;48.63;;
48975;SDS011;34791;52.752;8.346;2023-02-10T05:56:25;189.63;;;50.83;;
48975;SDS011;34791;52.752;8.346;2023-02-10T05:58:50;219.00;;;54.20;;
48975;SDS011;34791;52.752;8.346;2023-02-10T06:01:15;182.83;;;49.93;;
48975;SDS011;34791;52.752;8.346;2023-02-10T06:03:41;216.43;;;56.13;;
48975;SDS011;34791;52.752;8.346;2023-02-10T06:06:06;197.30;;;53.60;;
48975;SDS011;34791;52.752;8.346;2023-02-10T06:08:32;205.70;;;54.27;;
48975;SDS011;34791;52.752;8.346;2023-02-10T06:10:57;198.97;;;54.70;;
48975;SDS011;34791;52.752;8.346;2023-02-10T06:13:23;235.23;;;54.33;;
48975;SDS011;34791;52.752;8.346;2023-02-10T06:15:48;221.73;;;54.97;;
48975;SDS011;34791;52.752;8.346;2023-02-10T06:18:14;232.53;;;57.47;;
48975;SDS011;34791;52.752;8.346;2023-02-10T06:20:39;222.53;;;57.73;;
48975;SDS011;34791;52.752;8.346;2023-02-10T06:23:05;196.83;;;52.70;;
48975;SDS011;34791;52.752;8.346;2023-02-10T06:25:30;197.60;;;54.07;;
48975;SDS011;34791;52.752;8.346;2023-02-10T06:27:56;222.70;;;55.27;;
48975;SDS011;34791;52.752;8.346;2023-02-10T06:30:21;220.73;;;55.23;;
48975;SDS011;34791;52.752;8.346;2023-02-10T06:32:47;226.60;;;58.20;;
48975;SDS011;34791;52.752;8.346;2023-02-10T06:35:12;224.13;;;57.17;;
48975;SDS011;34791;52.752;8.346;2023-02-10T06:37:38;222.70;;;55.43;;
48975;SDS011;34791;52.752;8.346;2023-02-10T06:40:04;209.80;;;53.27;;
48975;SDS011;34791;52.752;8.346;2023-02-10T06:42:30;214.63;;;56.30;;
48975;SDS011;34791;52.752;8.346;2023-02-10T06:44:56;200.10;;;55.60;;
48975;SDS011;34791;52.752;8.346;2023-02-10T06:47:21;229.70;;;57.07;;
48975;SDS011;34791;52.752;8.346;2023-02-10T06:49:47;225.17;;;56.37;;
48975;SDS011;34791;52.752;8.346;2023-02-10T06:52:12;219.20;;;56.40;;
48975;SDS011;34791;52.752;8.346;2023-02-10T06:54:38;214.80;;;57.20;;
48975;SDS011;34791;52.752;8.346;2023-02-10T06:57:03;228.60;;;58.30;;
48975;SDS011;34791;52.752;8.346;2023-02-10T06:59:29;217.17;;;57.13;;
48975;SDS011;34791;52.752;8.346;2023-02-10T07:01:54;209.37;;;52.60;;
48975;SDS011;34791;52.752;8.346;2023-02-10T07:04:28;224.30;;;56.20;;
48975;SDS011;34791;52.752;8.346;2023-02-10T07:06:55;221.47;;;56.00;;
48975;SDS011;34791;52.752;8.346;2023-02-10T07:09:22;214.87;;;57.37;;
48975;SDS011;34791;52.752;8.346;2023-02-10T07:11:47;229.03;;;57.00;;
48975;SDS011;34791;52.752;8.346;2023-02-10T07:14:12;192.93;;;53.07;;
48975;SDS011;34791;52.752;8.346;2023-02-10T07:16:38;202.70;;;53.60;;
48975;SDS011;34791;52.752;8.346;2023-02-10T07:19:03;193.30;;;51.80;;
48975;SDS011;34791;52.752;8.346;2023-02-10T07:21:29;191.20;;;51.53;;
48975;SDS011;34791;52.752;8.346;2023-02-10T07:23:54;157.13;;;45.87;;
48975;SDS011;34791;52.752;8.346;2023-02-10T07:26:20;166.77;;;47.67;;
48975;SDS011;34791;52.752;8.346;2023-02-10T07:28:45;165.27;;;47.77;;
48975;SDS011;34791;52.752;8.346;2023-02-10T07:31:11;161.30;;;47.70;;
48975;SDS011;34791;52.752;8.346;2023-02-10T07:33:37;159.60;;;48.47;;
48975;SDS011;34791;52.752;8.346;2023-02-10T07:36:03;148.70;;;44.10;;
48975;SDS011;34791;52.752;8.346;2023-02-10T07:38:30;158.30;;;46.63;;
48975;SDS011;34791;52.752;8.346;2023-02-10T07:40:56;148.77;;;45.30;;
48975;SDS011;34791;52.752;8.346;2023-02-10T07:43:22;117.87;;;36.17;;
48975;SDS011;34791;52.752;8.346;2023-02-10T07:45:48;141.80;;;43.63;;
48975;SDS011;34791;52.752;8.346;2023-02-10T07:48:15;136.40;;;44.97;;
48975;SDS011;34791;52.752;8.346;2023-02-10T07:50:41;132.93;;;42.50;;
48975;SDS011;34791;52.752;8.346;2023-02-10T07:53:07;113.73;;;39.27;;
48975;SDS011;34791;52.752;8.346;2023-02-10T07:55:32;111.07;;;38.27;;
48975;SDS011;34791;52.752;8.346;2023-02-10T07:57:58;92.20;;;33.43;;
48975;SDS011;34791;52.752;8.346;2023-02-10T08:00:23;95.87;;;32.27;;
48975;SDS011;34791;52.752;8.346;2023-02-10T08:02:48;98.97;;;34.67;;
48975;SDS011;34791;52.752;8.346;2023-02-10T08:05:14;90.80;;;32.63;;
48975;SDS011;34791;52.752;8.346;2023-02-10T08:07:39;88.03;;;34.60;;
48975;SDS011;34791;52.752;8.346;2023-02-10T08:10:05;68.27;;;27.00;;
48975;SDS011;34791;52.752;8.346;2023-02-10T08:12:30;80.10;;;32.73;;
48975;SDS011;34791;52.752;8.346;2023-02-10T08:14:57;64.37;;;25.17;;
48975;SDS011;34791;52.752;8.346;2023-02-10T08:17:23;70.77;;;28.90;;
48975;SDS011;34791;52.752;8.346;2023-02-10T08:19:48;61.93;;;27.20;;
48975;SDS011;34791;52.752;8.346;2023-02-10T08:22:14;54.20;;;25.37;;
48975;SDS011;34791;52.752;8.346;2023-02-10T08:24:39;55.57;;;25.60;;
48975;SDS011;34791;52.752;8.346;2023-02-10T08:27:05;45.23;;;21.77;;
48975;SDS011;34791;52.752;8.346;2023-02-10T08:29:30;55.07;;;25.33;;
48975;SDS011;34791;52.752;8.346;2023-02-10T08:31:56;49.23;;;22.60;;
48975;SDS011;34791;52.752;8.346;2023-02-10T08:34:21;49.77;;;22.67;;
48975;SDS011;34791;52.752;8.346;2023-02-10T08:36:47;43.77;;;22.27;;
48975;SDS011;34791;52.752;8.346;2023-02-10T08:39:13;42.57;;;20.93;;
48975;SDS011;34791;52.752;8.346;2023-02-10T08:41:39;45.43;;;22.30;;
48975;SDS011;34791;52.752;8.346;2023-02-10T08:44:05;43.57;;;22.23;;
48975;SDS011;34791;52.752;8.346;2023-02-10T08:46:31;44.90;;;22.53;;
48975;SDS011;34791;52.752;8.346;2023-02-10T08:48:57;35.30;;;17.07;;
48975;SDS011;34791;52.752;8.346;2023-02-10T08:51:25;41.03;;;20.03;;
48975;SDS011;34791;52.752;8.346;2023-02-10T08:53:50;46.50;;;22.50;;
48975;SDS011;34791;52.752;8.346;2023-02-10T08:56:16;37.13;;;19.33;;
48975;SDS011;34791;52.752;8.346;2023-02-10T08:58:43;38.77;;;20.27;;
48975;SDS011;34791;52.752;8.346;2023-02-10T09:01:11;37.57;;;17.60;;
48975;SDS011;34791;52.752;8.346;2023-02-10T09:03:38;29.50;;;15.40;;
48975;SDS011;34791;52.752;8.346;2023-02-10T09:06:04;39.37;;;19.83;;
48975;SDS011;34791;52.752;8.346;2023-02-10T09:08:30;40.07;;;18.97;;
48975;SDS011;34791;52.752;8.346;2023-02-10T09:10:55;40.83;;;17.97;;
48975;SDS011;34791;52.752;8.346;2023-02-10T09:13:22;41.93;;;21.33;;
48975;SDS011;34791;52.752;8.346;2023-02-10T09:15:48;38.63;;;17.30;;
48975;SDS011;34791;52.752;8.346;2023-02-10T09:18:13;34.13;;;16.63;;
48975;SDS011;34791;52.752;8.346;2023-02-10T09:20:39;49.17;;;22.10;;
48975;SDS011;34791;52.752;8.346;2023-02-10T09:23:04;43.80;;;20.37;;
48975;SDS011;34791;52.752;8.346;2023-02-10T09:25:30;45.60;;;22.70;;
48975;SDS011;34791;52.752;8.346;2023-02-10T09:27:56;45.87;;;21.73;;
48975;SDS011;34791;52.752;8.346;2023-02-10T09:30:23;43.33;;;21.67;;
48975;SDS011;34791;52.752;8.346;2023-02-10T09:32:51;50.43;;;24.07;;
48975;SDS011;34791;52.752;8.346;2023-02-10T09:35:17;43.40;;;18.07;;
48975;SDS011;34791;52.752;8.346;2023-02-10T09:37:43;50.70;;;19.97;;
48975;SDS011;34791;52.752;8.346;2023-02-10T09:40:27;49.90;;;21.67;;
48975;SDS011;34791;52.752;8.346;2023-02-10T09:45:43;43.27;;;19.40;;
48975;SDS011;34791;52.752;8.346;2023-02-10T09:48:25;50.60;;;22.97;;
48975;SDS011;34791;52.752;8.346;2023-02-10T09:53:48;48.30;;;23.67;;
48975;SDS011;34791;52.752;8.346;2023-02-10T09:56:17;53.30;;;23.47;;
48975;SDS011;34791;52.752;8.346;2023-02-10T09:58:54;54.87;;;25.23;;
48975;SDS011;34791;52.752;8.346;2023-02-10T10:03:55;62.53;;;26.90;;
48975;SDS011;34791;52.752;8.346;2023-02-10T10:06:30;55.23;;;25.03;;
48975;SDS011;34791;52.752;8.346;2023-02-10T10:09:03;40.00;;;14.23;;
48975;SDS011;34791;52.752;8.346;2023-02-10T10:11:37;61.87;;;24.87;;
48975;SDS011;34791;52.752;8.346;2023-02-10T10:14:17;54.27;;;23.07;;
48975;SDS011;34791;52.752;8.346;2023-02-10T10:28:35;65.17;;;26.63;;
48975;SDS011;34791;52.752;8.346;2023-02-10T10:33:38;63.53;;;26.20;;
48975;SDS011;34791;52.752;8.346;2023-02-10T10:36:20;69.73;;;26.73;;
48975;SDS011;34791;52.752;8.346;2023-02-10T10:41:43;61.73;;;27.03;;
48975;SDS011;34791;52.752;8.346;2023-02-10T10:44:10;66.03;;;27.73;;
48975;SDS011;34791;52.752;8.346;2023-02-10T10:46:45;68.57;;;25.43;;
48975;SDS011;34791;52.752;8.346;2023-02-10T10:49:14;59.63;;;24.33;;
48975;SDS011;34791;52.752;8.346;2023-02-10T10:51:40;49.47;;;21.77;;
48975;SDS011;34791;52.752;8.346;2023-02-10T10:54:06;64.00;;;27.93;;
48975;SDS011;34791;52.752;8.346;2023-02-10T10:59:20;54.83;;;21.60;;
48975;SDS011;34791;52.752;8.346;2023-02-10T11:01:52;59.47;;;26.00;;
48975;SDS011;34791;52.752;8.346;2023-02-10T11:04:24;58.07;;;25.93;;
48975;SDS011;34791;52.752;8.346;2023-02-10T11:06:55;67.67;;;28.77;;
48975;SDS011;34791;52.752;8.346;2023-02-10T11:12:04;69.00;;;29.60;;
48975;SDS011;34791;52.752;8.346;2023-02-10T11:14:43;65.60;;;26.07;;
48975;SDS011;34791;52.752;8.346;2023-02-10T11:17:29;55.33;;;24.87;;
48975;SDS011;34791;52.752;8.346;2023-02-10T11:19:59;70.23;;;28.10;;
48975;SDS011;34791;52.752;8.346;2023-02-10T11:22:27;62.53;;;26.93;;
48975;SDS011;34791;52.752;8.346;2023-02-10T11:24:56;54.77;;;25.17;;
48975;SDS011;34791;52.752;8.346;2023-02-10T11:27:24;69.57;;;28.85;;
48975;SDS011;34791;52.752;8.346;2023-02-10T11:29:53;52.33;;;22.17;;
48975;SDS011;34791;52.752;8.346;2023-02-10T11:32:24;62.78;;;29.00;;
48975;SDS011;34791;52.752;8.346;2023-02-10T11:34:51;56.97;;;25.73;;
48975;SDS011;34791;52.752;8.346;2023-02-10T11:37:21;59.80;;;28.47;;
48975;SDS011;34791;52.752;8.346;2023-02-10T11:39:55;57.93;;;24.77;;
48975;SDS011;34791;52.752;8.346;2023-02-10T11:42:25;49.13;;;22.10;;
48975;SDS011;34791;52.752;8.346;2023-02-10T11:44:54;51.03;;;24.77;;
48975;SDS011;34791;52.752;8.346;2023-02-10T11:47:23;52.80;;;25.27;;
48975;SDS011;34791;52.752;8.346;2023-02-10T11:49:50;51.47;;;22.47;;
48975;SDS011;34791;52.752;8.346;2023-02-10T11:52:19;54.87;;;22.90;;
48975;SDS011;34791;52.752;8.346;2023-02-10T11:54:47;48.45;;;22.58;;
48975;SDS011;34791;52.752;8.346;2023-02-10T12:08:29;43.38;;;20.80;;
48975;SDS011;34791;52.752;8.346;2023-02-10T12:13:52;48.90;;;20.97;;
48975;SDS011;34791;52.752;8.346;2023-02-10T12:21:54;37.80;;;16.13;;
48975;SDS011;34791;52.752;8.346;2023-02-10T12:27:47;36.00;;;15.27;;
48975;SDS011;34791;52.752;8.346;2023-02-10T12:39:03;32.73;;;15.00;;
48975;SDS011;34791;52.752;8.346;2023-02-10T12:41:58;37.30;;;16.07;;
48975;SDS011;34791;52.752;8.346;2023-02-10T12:58:25;38.00;;;17.17;;
48975;SDS011;34791;52.752;8.346;2023-02-10T13:03:44;31.60;;;13.53;;
48975;SDS011;34791;52.752;8.346;2023-02-10T13:06:31;35.90;;;13.47;;
48975;SDS011;34791;52.752;8.346;2023-02-10T13:09:05;32.57;;;13.20;;
48975;SDS011;34791;52.752;8.346;2023-02-10T13:11:41;32.80;;;13.63;;
48975;SDS011;34791;52.752;8.346;2023-02-10T13:14:12;19.90;;;8.10;;
48975;SDS011;34791;52.752;8.346;2023-02-10T13:16:50;30.20;;;11.50;;
48975;SDS011;34791;52.752;8.346;2023-02-10T13:22:06;29.17;;;10.03;;
48975;SDS011;34791;52.752;8.346;2023-02-10T13:24:44;24.70;;;9.50;;
48975;SDS011;34791;52.752;8.346;2023-02-10T13:30:00;22.65;;;8.38;;
48975;SDS011;34791;52.752;8.346;2023-02-10T13:35:13;26.03;;;9.63;;
48975;SDS011;34791;52.752;8.346;2023-02-10T13:37:51;23.97;;;8.73;;
48975;SDS011;34791;52.752;8.346;2023-02-10T13:40:21;25.07;;;10.70;;
48975;SDS011;34791;52.752;8.346;2023-02-10T13:45:28;22.90;;;9.63;;
48975;SDS011;34791;52.752;8.346;2023-02-10T13:53:05;23.37;;;9.17;;
48975;SDS011;34791;52.752;8.346;2023-02-10T13:55:50;24.67;;;8.40;;
48975;SDS011;34791;52.752;8.346;2023-02-10T13:58:31;22.60;;;9.20;;
48975;SDS011;34791;52.752;8.346;2023-02-10T14:00:58;22.65;;;9.98;;
48975;SDS011;34791;52.752;8.346;2023-02-10T14:03:30;32.40;;;10.80;;
48975;SDS011;34791;52.752;8.346;2023-02-10T14:08:41;20.83;;;8.60;;
48975;SDS011;34791;52.752;8.346;2023-02-10T14:13:43;22.52;;;8.75;;
48975;SDS011;34791;52.752;8.346;2023-02-10T14:16:27;25.30;;;8.97;;
48975;SDS011;34791;52.752;8.346;2023-02-10T14:19:00;24.23;;;8.97;;
48975;SDS011;34791;52.752;8.346;2023-02-10T14:21:36;24.53;;;10.00;;
48975;SDS011;34791;52.752;8.346;2023-02-10T14:24:05;23.60;;;10.07;;
48975;SDS011;34791;52.752;8.346;2023-02-10T14:26:38;25.90;;;10.97;;
48975;SDS011;34791;52.752;8.346;2023-02-10T14:29:09;30.60;;;10.20;;
48975;SDS011;34791;52.752;8.346;2023-02-10T14:31:39;23.95;;;10.75;;
48975;SDS011;34791;52.752;8.346;2023-02-10T14:34:16;25.33;;;9.60;;
48975;SDS011;34791;52.752;8.346;2023-02-10T14:36:58;25.63;;;9.60;;
48975;SDS011;34791;52.752;8.346;2023-02-10T14:39:37;22.77;;;9.57;;
48975;SDS011;34791;52.752;8.346;2023-02-10T14:42:03;22.77;;;8.17;;
48975;SDS011;34791;52.752;8.346;2023-02-10T14:44:32;25.57;;;10.10;;
48975;SDS011;34791;52.752;8.346;2023-02-10T14:47:04;25.27;;;8.70;;
48975;SDS011;34791;52.752;8.346;2023-02-10T14:49:30;24.83;;;9.00;;
48975;SDS011;34791;52.752;8.346;2023-02-10T14:52:00;22.53;;;8.53;;
48975;SDS011;34791;52.752;8.346;2023-02-10T14:54:27;20.47;;;7.90;;
48975;SDS011;34791;52.752;8.346;2023-02-10T14:56:56;19.97;;;7.97;;
48975;SDS011;34791;52.752;8.346;2023-02-10T14:59:26;20.40;;;7.13;;
48975;SDS011;34791;52.752;8.346;2023-02-10T15:01:53;23.67;;;9.10;;
48975;SDS011;34791;52.752;8.346;2023-02-10T15:04:20;17.27;;;7.40;;
48975;SDS011;34791;52.752;8.346;2023-02-10T15:06:50;22.63;;;8.50;;
48975;SDS011;34791;52.752;8.346;2023-02-10T15:09:19;20.40;;;7.60;;
48975;SDS011;34791;52.752;8.346;2023-02-10T15:11:52;16.07;;;7.23;;
48975;SDS011;34791;52.752;8.346;2023-02-10T15:17:31;22.13;;;8.18;;
48975;SDS011;34791;52.752;8.346;2023-02-10T15:20:16;18.63;;;7.22;;
48975;SDS011;34791;52.752;8.346;2023-02-10T15:22:50;20.37;;;8.33;;
48975;SDS011;34791;52.752;8.346;2023-02-10T15:27:55;21.13;;;7.53;;
48975;SDS011;34791;52.752;8.346;2023-02-10T15:30:23;22.47;;;8.10;;
48975;SDS011;34791;52.752;8.346;2023-02-10T15:32:52;20.37;;;8.00;;
48975;SDS011;34791;52.752;8.346;2023-02-10T15:35:23;22.30;;;8.50;;
48975;SDS011;34791;52.752;8.346;2023-02-10T15:37:50;20.47;;;7.70;;
48975;SDS011;34791;52.752;8.346;2023-02-10T15:40:28;17.80;;;6.97;;
48975;SDS011;34791;52.752;8.346;2023-02-10T15:43:03;21.77;;;7.73;;
48975;SDS011;34791;52.752;8.346;2023-02-10T15:45:30;18.53;;;6.83;;
48975;SDS011;34791;52.752;8.346;2023-02-10T15:48:00;23.57;;;7.80;;
48975;SDS011;34791;52.752;8.346;2023-02-10T15:50:34;18.23;;;7.57;;
48975;SDS011;34791;52.752;8.346;2023-02-10T15:53:01;21.33;;;7.33;;
48975;SDS011;34791;52.752;8.346;2023-02-10T15:57:56;15.17;;;6.13;;
48975;SDS011;34791;52.752;8.346;2023-02-10T16:00:26;22.77;;;8.90;;
48975;SDS011;34791;52.752;8.346;2023-02-10T16:05:20;25.83;;;10.60;;
48975;SDS011;34791;52.752;8.346;2023-02-10T16:07:46;27.33;;;10.50;;
48975;SDS011;34791;52.752;8.346;2023-02-10T16:10:20;13.90;;;5.87;;
48975;SDS011;34791;52.752;8.346;2023-02-10T16:12:47;21.23;;;8.40;;
48975;SDS011;34791;52.752;8.346;2023-02-10T16:15:17;24.00;;;9.37;;
48975;SDS011;34791;52.752;8.346;2023-02-10T16:17:45;25.33;;;9.07;;
48975;SDS011;34791;52.752;8.346;2023-02-10T16:20:17;20.63;;;8.47;;
48975;SDS011;34791;52.752;8.346;2023-02-10T16:22:45;22.90;;;9.25;;
48975;SDS011;34791;52.752;8.346;2023-02-10T16:25:13;28.23;;;10.40;;
48975;SDS011;34791;52.752;8.346;2023-02-10T16:27:39;34.73;;;12.70;;
48975;SDS011;34791;52.752;8.346;2023-02-10T16:30:05;28.87;;;8.90;;
48975;SDS011;34791;52.752;8.346;2023-02-10T16:32:30;28.30;;;8.47;;
48975;SDS011;34791;52.752;8.346;2023-02-10T16:34:56;27.47;;;10.03;;
48975;SDS011;34791;52.752;8.346;2023-02-10T16:37:21;27.97;;;9.30;;